Latest Weather Observations for South Channel Island

IDV60801

Issued at 2:05 am EDT Friday 31 October 2014 (issued every 30 minutes, with the page automatically refreshed every 10 minutes)

About weather observations | Map of weather stations | Latest weather observations for VIC | Other Formats
Station Details ID: 086344 Name: SOUTH CHANNEL ISLAND Lat: -38.31 Lon: 144.80 Height: 9.0 m
Data from the previous 72 hours. | See also: Recent months for locations in Victoria
Date/Time
EDT
Temp
°C
App
Temp
°C
Dew
Point
Rel
Hum
%
Delta-T
°C
Wind Press
QNH
hPa
Press
MSL
hPa
Rain
since 9 am
mm
Dir
 
Spd
km/h
Gust
km/h
Spd
kts
Gust
kts
31/02:00am - - - - - E 11 13 6 7 - - -
31/01:30am - - - - - ESE 9 11 5 6 - - -
31/01:00am - - - - - E 9 11 5 6 - - -
31/12:30am - - - - - SE 9 11 5 6 - - -
31/12:00am - - - - - ESE 13 13 7 7 - - -
 
Date/Time
EDT
Temp
°C
App
Temp
°C
Dew
Point
Rel
Hum
%
Delta-T
°C
Wind Press
QNH
hPa
Press
MSL
hPa
Rain
since 9 am
mm
Dir
 
Spd
km/h
Gust
km/h
Spd
kts
Gust
kts
30/11:30pm - - - - - SSE 13 15 7 8 - - -
30/11:00pm - - - - - SSE 13 17 7 9 - - -
30/10:30pm - - - - - SSE 13 17 7 9 - - -
30/10:00pm - - - - - SE 11 13 6 7 - - -
30/09:30pm - - - - - SE 13 17 7 9 - - -
30/09:00pm - - - - - SSE 15 19 8 10 - - -
30/08:30pm - - - - - SSE 17 22 9 12 - - -
30/08:00pm - - - - - S 26 32 14 17 - - -
30/07:30pm - - - - - S 28 32 15 17 - - -
30/07:00pm - - - - - S 30 33 16 18 - - -
30/06:30pm - - - - - S 32 35 17 19 - - -
30/06:00pm - - - - - S 33 37 18 20 - - -
30/05:30pm - - - - - S 32 35 17 19 - - -
30/05:00pm - - - - - S 33 37 18 20 - - -
30/04:30pm - - - - - S 24 28 13 15 - - -
30/04:00pm - - - - - SSW 28 33 15 18 - - -
30/03:30pm - - - - - SSW 22 28 12 15 - - -
30/03:00pm - - - - - SSW 19 22 10 12 - - -
30/02:30pm - - - - - SSW 15 19 8 10 - - -
30/02:00pm - - - - - SW 17 20 9 11 - - -
30/01:30pm - - - - - SW 15 20 8 11 - - -
30/01:00pm - - - - - SW 20 28 11 15 - - -
30/12:30pm - - - - - SW 24 28 13 15 - - -
30/12:00pm - - - - - WSW 20 26 11 14 - - -
30/11:30am - - - - - W 28 33 15 18 - - -
30/11:00am - - - - - W 28 33 15 18 - - -
30/10:30am - - - - - W 22 28 12 15 - - -
30/10:00am - - - - - WNW 26 30 14 16 - - -
30/09:30am - - - - - WNW 26 30 14 16 - - -
30/09:00am - - - - - WNW 28 33 15 18 - - -
30/08:30am - - - - - WNW 28 32 15 17 - - -
30/08:00am - - - - - WNW 30 33 16 18 - - -
30/07:30am - - - - - WNW 32 35 17 19 - - -
30/07:00am - - - - - WNW 28 32 15 17 - - -
30/06:30am - - - - - WNW 26 30 14 16 - - -
30/06:00am - - - - - NW 26 30 14 16 - - -
30/05:30am - - - - - WNW 28 32 15 17 - - -
30/05:00am - - - - - WNW 28 32 15 17 - - -
30/04:30am - - - - - WNW 26 30 14 16 - - -
30/04:00am - - - - - NW 24 26 13 14 - - -
30/03:30am - - - - - NW 28 32 15 17 - - -
30/03:00am - - - - - WNW 28 32 15 17 - - -
30/02:30am - - - - - NW 28 32 15 17 - - -
30/02:00am - - - - - NW 26 30 14 16 - - -
30/01:30am - - - - - NW 28 32 15 17 - - -
30/01:00am - - - - - WNW 24 30 13 16 - - -
30/12:30am - - - - - NW 19 22 10 12 - - -
30/12:00am - - - - - NW 19 24 10 13 - - -
 
Date/Time
EDT
Temp
°C
App
Temp
°C
Dew
Point
Rel
Hum
%
Delta-T
°C
Wind Press
QNH
hPa
Press
MSL
hPa
Rain
since 9 am
mm
Dir
 
Spd
km/h
Gust
km/h
Spd
kts
Gust
kts
29/11:30pm - - - - - WNW 13 15 7 8 - - -
29/11:00pm - - - - - W 9 11 5 6 - - -
29/10:30pm - - - - - SSW 7 9 4 5 - - -
29/10:00pm - - - - - S 9 11 5 6 - - -
29/09:30pm - - - - - SSW 17 20 9 11 - - -
29/09:00pm - - - - - S 20 26 11 14 - - -
29/08:30pm - - - - - S 20 26 11 14 - - -
29/08:00pm - - - - - S 22 26 12 14 - - -
29/07:30pm - - - - - S 30 33 16 18 - - -
29/07:00pm - - - - - S 30 33 16 18 - - -
29/06:30pm - - - - - S 32 35 17 19 - - -
29/06:00pm - - - - - S 26 30 14 16 - - -
29/05:30pm - - - - - SSW 24 30 13 16 - - -
29/05:00pm - - - - - S 13 20 7 11 - - -
29/04:30pm - - - - - ESE 7 11 4 6 - - -
29/04:00pm - - - - - E 11 13 6 7 - - -
29/03:30pm - - - - - E 9 13 5 7 - - -
29/03:00pm - - - - - SSW 9 13 5 7 - - -
29/02:30pm - - - - - SSW 9 11 5 6 - - -
29/02:00pm - - - - - W 11 13 6 7 - - -
29/01:30pm - - - - - W 9 13 5 7 - - -
29/01:00pm - - - - - NNW 19 24 10 13 - - -
29/12:30pm - - - - - NW 26 32 14 17 - - -
29/12:00pm - - - - - NNW 15 20 8 11 - - -
29/11:30am - - - - - NW 20 24 11 13 - - -
29/11:00am - - - - - NW 17 26 9 14 - - -
29/10:30am - - - - - WNW 19 26 10 14 - - -
29/10:00am - - - - - NW 20 28 11 15 - - -
29/09:30am - - - - - WNW 24 30 13 16 - - -
29/09:00am - - - - - WNW 26 30 14 16 - - -
29/08:30am - - - - - WNW 28 32 15 17 - - -
29/08:00am - - - - - W 32 35 17 19 - - -
29/07:30am - - - - - WNW 28 32 15 17 - - -
29/07:00am - - - - - WNW 30 33 16 18 - - -
29/06:30am - - - - - WNW 32 35 17 19 - - -
29/06:00am - - - - - WNW 30 33 16 18 - - -
29/05:30am - - - - - WNW 30 33 16 18 - - -
29/05:00am - - - - - WNW 30 35 16 19 - - -
29/04:30am - - - - - WNW 32 35 17 19 - - -
29/04:00am - - - - - WNW 30 33 16 18 - - -
29/03:30am - - - - - WNW 33 37 18 20 - - -
29/03:00am - - - - - W 32 35 17 19 - - -
29/02:30am - - - - - W 32 37 17 20 - - -
29/02:00am - - - - - W 33 37 18 20 - - -
29/01:30am - - - - - W 33 39 18 21 - - -
29/01:00am - - - - - W 32 35 17 19 - - -
29/12:30am - - - - - WNW 30 35 16 19 - - -
29/12:00am - - - - - W 33 37 18 20 - - -
 
Date/Time
EDT
Temp
°C
App
Temp
°C
Dew
Point
Rel
Hum
%
Delta-T
°C
Wind Press
QNH
hPa
Press
MSL
hPa
Rain
since 9 am
mm
Dir
 
Spd
km/h
Gust
km/h
Spd
kts
Gust
kts
28/11:30pm - - - - - W 32 37 17 20 - - -
28/11:00pm - - - - - W 32 39 17 21 - - -
28/10:30pm - - - - - W 35 44 19 24 - - -
28/10:00pm - - - - - W 35 44 19 24 - - -
28/09:30pm - - - - - W 39 46 21 25 - - -
28/09:00pm - - - - - W 37 44 20 24 - - -
28/08:30pm - - - - - W 39 44 21 24 - - -
28/08:00pm - - - - - WSW 43 52 23 28 - - -
28/07:30pm - - - - - SW 44 52 24 28 - - -
28/07:00pm - - - - - SW 41 48 22 26 - - -
28/06:30pm - - - - - SW 46 54 25 29 - - -
28/06:00pm - - - - - SW 48 54 26 29 - - -
28/05:30pm - - - - - SW 46 57 25 31 - - -
28/05:00pm - - - - - SW 44 52 24 28 - - -
28/04:30pm - - - - - SW 46 54 25 29 - - -
28/04:00pm - - - - - WSW 41 52 22 28 - - -
28/03:43pm - - - - - SW 37 56 20 30 - - -
28/03:30pm - - - - - SW 37 44 20 24 - - -
28/03:00pm - - - - - WSW 39 50 21 27 - - -
28/02:30pm - - - - - W 52 63 28 34 - - -
28/02:00pm - - - - - W 48 57 26 31 - - -
28/01:30pm - - - - - W 48 63 26 34 - - -
28/01:00pm - - - - - W 43 52 23 28 - - -
28/12:30pm - - - - - W 44 56 24 30 - - -
28/12:00pm - - - - - W 39 48 21 26 - - -
28/11:30am - - - - - W 39 46 21 25 - - -
28/11:00am - - - - - W 48 56 26 30 - - -
28/10:30am - - - - - W 46 57 25 31 - - -
28/10:00am - - - - - W 48 59 26 32 - - -
28/09:30am - - - - - WNW 52 61 28 33 - - -
28/09:10am - - - - - W 41 59 22 32 - - -
28/09:00am - - - - - W 46 57 25 31 - - -
28/08:30am - - - - - WNW 48 63 26 34 - - -
28/08:00am - - - - - WNW 52 63 28 34 - - -
28/07:36am - - - - - NW 50 70 27 38 - - -
28/07:30am - - - - - NW 48 59 26 32 - - -
28/07:00am - - - - - NW 44 52 24 28 - - -
28/06:30am - - - - - WNW 50 59 27 32 - - -
28/06:00am - - - - - WNW 54 63 29 34 - - -
28/05:41am - - - - - WNW 54 72 29 39 - - -
28/05:30am - - - - - WNW 54 67 29 36 - - -
28/05:03am - - - - - WNW 54 72 29 39 - - -
28/05:00am - - - - - WNW 54 65 29 35 - - -
28/04:30am - - - - - NW 54 65 29 35 - - -
28/04:00am - - - - - NW 50 57 27 31 - - -
28/03:30am - - - - - NW 54 59 29 32 - - -
28/03:00am - - - - - NW 48 57 26 31 - - -
28/02:30am - - - - - WNW 46 54 25 29 - - -

Other Formats:

Comma delimited format used in spreadsheet applications
http://www.bom.gov.au/fwo/IDV60801/IDV60801.94853.axf

JavaScript Object Notation format (JSON) in row-major order
http://www.bom.gov.au/fwo/IDV60801/IDV60801.94853.json